sensor_id;sensor_type;location;lat;lon;timestamp;P1;durP1;ratioP1;P2;durP2;ratioP2
39454;SDS011;25155;41.890;23.446;2023-09-19T00:00:23;4.55;;;3.25;;
39454;SDS011;25155;41.890;23.446;2023-09-19T00:02:53;9.48;;;4.63;;
39454;SDS011;25155;41.890;23.446;2023-09-19T00:05:22;5.85;;;4.35;;
39454;SDS011;25155;41.890;23.446;2023-09-19T00:07:53;6.30;;;4.57;;
39454;SDS011;25155;41.890;23.446;2023-09-19T00:10:22;6.18;;;4.30;;
39454;SDS011;25155;41.890;23.446;2023-09-19T00:12:52;5.57;;;4.53;;
39454;SDS011;25155;41.890;23.446;2023-09-19T00:15:21;5.07;;;3.80;;
39454;SDS011;25155;41.890;23.446;2023-09-19T00:17:49;4.57;;;3.55;;
39454;SDS011;25155;41.890;23.446;2023-09-19T00:20:17;4.80;;;3.50;;
39454;SDS011;25155;41.890;23.446;2023-09-19T00:22:47;4.60;;;3.42;;
39454;SDS011;25155;41.890;23.446;2023-09-19T00:25:14;4.82;;;3.67;;
39454;SDS011;25155;41.890;23.446;2023-09-19T00:27:42;4.50;;;3.40;;
39454;SDS011;25155;41.890;23.446;2023-09-19T00:30:12;4.75;;;3.33;;
39454;SDS011;25155;41.890;23.446;2023-09-19T00:32:45;4.70;;;3.30;;
39454;SDS011;25155;41.890;23.446;2023-09-19T00:35:12;4.50;;;3.50;;
39454;SDS011;25155;41.890;23.446;2023-09-19T00:37:41;4.68;;;3.10;;
39454;SDS011;25155;41.890;23.446;2023-09-19T00:40:09;4.32;;;3.25;;
39454;SDS011;25155;41.890;23.446;2023-09-19T00:42:38;4.90;;;3.60;;
39454;SDS011;25155;41.890;23.446;2023-09-19T00:45:06;4.75;;;3.40;;
39454;SDS011;25155;41.890;23.446;2023-09-19T00:47:38;4.63;;;3.27;;
39454;SDS011;25155;41.890;23.446;2023-09-19T00:50:07;4.30;;;3.00;;
39454;SDS011;25155;41.890;23.446;2023-09-19T00:52:36;4.43;;;3.13;;
39454;SDS011;25155;41.890;23.446;2023-09-19T00:55:05;5.13;;;2.78;;
39454;SDS011;25155;41.890;23.446;2023-09-19T00:57:34;4.45;;;3.22;;
39454;SDS011;25155;41.890;23.446;2023-09-19T01:00:02;4.93;;;3.80;;
39454;SDS011;25155;41.890;23.446;2023-09-19T01:02:33;5.85;;;4.43;;
39454;SDS011;25155;41.890;23.446;2023-09-19T01:05:02;5.72;;;4.13;;
39454;SDS011;25155;41.890;23.446;2023-09-19T01:07:31;5.28;;;4.22;;
39454;SDS011;25155;41.890;23.446;2023-09-19T01:10:00;6.72;;;3.90;;
39454;SDS011;25155;41.890;23.446;2023-09-19T01:12:39;5.28;;;3.90;;
39454;SDS011;25155;41.890;23.446;2023-09-19T01:15:16;5.43;;;3.92;;
39454;SDS011;25155;41.890;23.446;2023-09-19T01:17:52;6.95;;;5.22;;
39454;SDS011;25155;41.890;23.446;2023-09-19T01:20:29;8.85;;;5.70;;
39454;SDS011;25155;41.890;23.446;2023-09-19T01:23:07;4.95;;;3.78;;
39454;SDS011;25155;41.890;23.446;2023-09-19T01:25:50;5.03;;;3.90;;
39454;SDS011;25155;41.890;23.446;2023-09-19T01:28:34;8.25;;;5.28;;
39454;SDS011;25155;41.890;23.446;2023-09-19T01:31:14;6.15;;;4.65;;
39454;SDS011;25155;41.890;23.446;2023-09-19T01:33:57;4.80;;;3.83;;
39454;SDS011;25155;41.890;23.446;2023-09-19T01:36:29;5.05;;;3.70;;
39454;SDS011;25155;41.890;23.446;2023-09-19T01:39:02;5.00;;;3.50;;
39454;SDS011;25155;41.890;23.446;2023-09-19T01:41:40;4.65;;;3.25;;
39454;SDS011;25155;41.890;23.446;2023-09-19T01:44:17;4.70;;;3.27;;
39454;SDS011;25155;41.890;23.446;2023-09-19T01:46:52;4.28;;;3.10;;
39454;SDS011;25155;41.890;23.446;2023-09-19T01:49:29;5.03;;;3.13;;
39454;SDS011;25155;41.890;23.446;2023-09-19T01:52:06;4.60;;;3.28;;
39454;SDS011;25155;41.890;23.446;2023-09-19T01:54:45;4.57;;;3.40;;
39454;SDS011;25155;41.890;23.446;2023-09-19T01:57:20;4.40;;;3.28;;
39454;SDS011;25155;41.890;23.446;2023-09-19T01:59:59;5.70;;;4.30;;
39454;SDS011;25155;41.890;23.446;2023-09-19T02:02:34;5.38;;;4.20;;
39454;SDS011;25155;41.890;23.446;2023-09-19T02:05:03;5.60;;;4.15;;
39454;SDS011;25155;41.890;23.446;2023-09-19T02:07:31;5.57;;;3.88;;
39454;SDS011;25155;41.890;23.446;2023-09-19T02:10:03;5.03;;;3.95;;
39454;SDS011;25155;41.890;23.446;2023-09-19T02:12:32;6.25;;;4.45;;
39454;SDS011;25155;41.890;23.446;2023-09-19T02:15:00;5.90;;;4.40;;
39454;SDS011;25155;41.890;23.446;2023-09-19T02:17:27;5.13;;;3.90;;
39454;SDS011;25155;41.890;23.446;2023-09-19T02:19:58;5.13;;;3.72;;
39454;SDS011;25155;41.890;23.446;2023-09-19T02:22:26;4.85;;;3.58;;
39454;SDS011;25155;41.890;23.446;2023-09-19T02:24:53;5.38;;;4.10;;
39454;SDS011;25155;41.890;23.446;2023-09-19T02:27:23;6.53;;;4.80;;
39454;SDS011;25155;41.890;23.446;2023-09-19T02:29:51;5.30;;;4.13;;
39454;SDS011;25155;41.890;23.446;2023-09-19T02:32:18;5.30;;;3.35;;
39454;SDS011;25155;41.890;23.446;2023-09-19T02:34:45;5.10;;;3.65;;
39454;SDS011;25155;41.890;23.446;2023-09-19T02:37:13;4.93;;;3.47;;
39454;SDS011;25155;41.890;23.446;2023-09-19T02:39:42;5.10;;;3.90;;
39454;SDS011;25155;41.890;23.446;2023-09-19T02:42:09;5.40;;;4.03;;
39454;SDS011;25155;41.890;23.446;2023-09-19T02:44:36;4.78;;;3.70;;
39454;SDS011;25155;41.890;23.446;2023-09-19T02:47:04;5.55;;;4.13;;
39454;SDS011;25155;41.890;23.446;2023-09-19T02:49:31;5.25;;;3.42;;
39454;SDS011;25155;41.890;23.446;2023-09-19T02:51:59;4.65;;;3.35;;
39454;SDS011;25155;41.890;23.446;2023-09-19T02:54:27;5.63;;;3.88;;
39454;SDS011;25155;41.890;23.446;2023-09-19T02:56:55;4.55;;;3.63;;
39454;SDS011;25155;41.890;23.446;2023-09-19T02:59:24;4.05;;;3.00;;
39454;SDS011;25155;41.890;23.446;2023-09-19T03:01:54;4.53;;;3.30;;
39454;SDS011;25155;41.890;23.446;2023-09-19T03:04:21;5.15;;;3.50;;
39454;SDS011;25155;41.890;23.446;2023-09-19T03:06:49;4.13;;;3.25;;
39454;SDS011;25155;41.890;23.446;2023-09-19T03:09:16;4.60;;;3.45;;
39454;SDS011;25155;41.890;23.446;2023-09-19T03:11:46;4.70;;;3.35;;
39454;SDS011;25155;41.890;23.446;2023-09-19T03:14:13;4.78;;;3.08;;
39454;SDS011;25155;41.890;23.446;2023-09-19T03:16:41;6.45;;;3.63;;
39454;SDS011;25155;41.890;23.446;2023-09-19T03:19:10;4.72;;;3.47;;
39454;SDS011;25155;41.890;23.446;2023-09-19T03:21:37;5.05;;;3.42;;
39454;SDS011;25155;41.890;23.446;2023-09-19T03:24:05;4.35;;;3.13;;
39454;SDS011;25155;41.890;23.446;2023-09-19T03:26:32;4.60;;;3.35;;
39454;SDS011;25155;41.890;23.446;2023-09-19T03:29:02;4.05;;;3.10;;
39454;SDS011;25155;41.890;23.446;2023-09-19T03:31:33;4.10;;;3.00;;
39454;SDS011;25155;41.890;23.446;2023-09-19T03:34:03;4.45;;;3.20;;
39454;SDS011;25155;41.890;23.446;2023-09-19T03:36:30;4.55;;;3.42;;
39454;SDS011;25155;41.890;23.446;2023-09-19T03:38:57;5.30;;;3.78;;
39454;SDS011;25155;41.890;23.446;2023-09-19T03:41:24;6.85;;;4.90;;
39454;SDS011;25155;41.890;23.446;2023-09-19T03:43:51;7.00;;;5.25;;
39454;SDS011;25155;41.890;23.446;2023-09-19T03:46:20;5.35;;;4.45;;
39454;SDS011;25155;41.890;23.446;2023-09-19T03:48:48;5.00;;;3.97;;
39454;SDS011;25155;41.890;23.446;2023-09-19T03:51:15;5.35;;;3.70;;
39454;SDS011;25155;41.890;23.446;2023-09-19T03:53:43;5.45;;;3.72;;
39454;SDS011;25155;41.890;23.446;2023-09-19T03:56:10;5.10;;;4.15;;
39454;SDS011;25155;41.890;23.446;2023-09-19T03:58:37;5.15;;;3.72;;
39454;SDS011;25155;41.890;23.446;2023-09-19T04:01:04;5.88;;;4.05;;
39454;SDS011;25155;41.890;23.446;2023-09-19T04:03:34;5.82;;;4.55;;
39454;SDS011;25155;41.890;23.446;2023-09-19T04:06:12;6.40;;;5.00;;
39454;SDS011;25155;41.890;23.446;2023-09-19T04:08:40;5.40;;;4.43;;
39454;SDS011;25155;41.890;23.446;2023-09-19T04:11:07;6.10;;;3.83;;
39454;SDS011;25155;41.890;23.446;2023-09-19T04:13:34;5.57;;;3.95;;
39454;SDS011;25155;41.890;23.446;2023-09-19T04:16:02;4.55;;;3.50;;
39454;SDS011;25155;41.890;23.446;2023-09-19T04:18:29;4.13;;;3.17;;
39454;SDS011;25155;41.890;23.446;2023-09-19T04:21:00;4.75;;;3.53;;
39454;SDS011;25155;41.890;23.446;2023-09-19T04:23:30;4.43;;;3.40;;
39454;SDS011;25155;41.890;23.446;2023-09-19T04:25:57;5.20;;;3.72;;
39454;SDS011;25155;41.890;23.446;2023-09-19T04:28:25;7.25;;;4.55;;
39454;SDS011;25155;41.890;23.446;2023-09-19T04:30:53;7.05;;;4.80;;
39454;SDS011;25155;41.890;23.446;2023-09-19T04:33:21;6.93;;;4.80;;
39454;SDS011;25155;41.890;23.446;2023-09-19T04:35:49;42.97;;;5.57;;
39454;SDS011;25155;41.890;23.446;2023-09-19T04:38:18;6.57;;;4.63;;
39454;SDS011;25155;41.890;23.446;2023-09-19T04:40:45;9.50;;;6.63;;
39454;SDS011;25155;41.890;23.446;2023-09-19T04:43:12;8.80;;;5.60;;
39454;SDS011;25155;41.890;23.446;2023-09-19T04:45:40;7.57;;;5.05;;
39454;SDS011;25155;41.890;23.446;2023-09-19T04:48:07;7.65;;;5.18;;
39454;SDS011;25155;41.890;23.446;2023-09-19T04:50:36;7.47;;;4.93;;
39454;SDS011;25155;41.890;23.446;2023-09-19T04:53:03;12.55;;;7.63;;
39454;SDS011;25155;41.890;23.446;2023-09-19T04:55:33;10.68;;;8.15;;
39454;SDS011;25155;41.890;23.446;2023-09-19T04:58:01;7.88;;;5.90;;
39454;SDS011;25155;41.890;23.446;2023-09-19T05:00:29;7.20;;;5.15;;
39454;SDS011;25155;41.890;23.446;2023-09-19T05:03:00;9.18;;;5.80;;
39454;SDS011;25155;41.890;23.446;2023-09-19T05:05:29;10.50;;;6.47;;
39454;SDS011;25155;41.890;23.446;2023-09-19T05:07:56;9.20;;;6.82;;
39454;SDS011;25155;41.890;23.446;2023-09-19T05:10:24;8.18;;;6.45;;
39454;SDS011;25155;41.890;23.446;2023-09-19T05:12:54;9.07;;;7.32;;
39454;SDS011;25155;41.890;23.446;2023-09-19T05:15:22;8.07;;;6.40;;
39454;SDS011;25155;41.890;23.446;2023-09-19T05:17:49;7.38;;;5.72;;
39454;SDS011;25155;41.890;23.446;2023-09-19T05:20:17;5.35;;;4.28;;
39454;SDS011;25155;41.890;23.446;2023-09-19T05:22:50;6.18;;;4.40;;
39454;SDS011;25155;41.890;23.446;2023-09-19T05:25:26;8.30;;;4.00;;
39454;SDS011;25155;41.890;23.446;2023-09-19T05:27:56;6.05;;;3.60;;
39454;SDS011;25155;41.890;23.446;2023-09-19T05:30:24;6.15;;;3.83;;
39454;SDS011;25155;41.890;23.446;2023-09-19T05:32:53;5.93;;;4.35;;
39454;SDS011;25155;41.890;23.446;2023-09-19T05:35:21;5.93;;;4.07;;
39454;SDS011;25155;41.890;23.446;2023-09-19T05:37:50;5.03;;;3.70;;
39454;SDS011;25155;41.890;23.446;2023-09-19T05:40:18;7.38;;;4.93;;
39454;SDS011;25155;41.890;23.446;2023-09-19T05:42:45;6.22;;;4.40;;
39454;SDS011;25155;41.890;23.446;2023-09-19T05:45:14;6.22;;;4.70;;
39454;SDS011;25155;41.890;23.446;2023-09-19T05:47:48;7.80;;;6.05;;
39454;SDS011;25155;41.890;23.446;2023-09-19T05:50:16;9.95;;;7.97;;
39454;SDS011;25155;41.890;23.446;2023-09-19T05:52:51;9.05;;;6.70;;
39454;SDS011;25155;41.890;23.446;2023-09-19T05:55:19;8.85;;;6.93;;
39454;SDS011;25155;41.890;23.446;2023-09-19T05:57:49;8.05;;;6.30;;
39454;SDS011;25155;41.890;23.446;2023-09-19T06:02:49;7.60;;;5.85;;
39454;SDS011;25155;41.890;23.446;2023-09-19T06:05:17;7.20;;;5.28;;
39454;SDS011;25155;41.890;23.446;2023-09-19T06:07:45;7.95;;;5.65;;
39454;SDS011;25155;41.890;23.446;2023-09-19T06:10:12;17.95;;;13.35;;
39454;SDS011;25155;41.890;23.446;2023-09-19T06:12:40;14.27;;;11.68;;
39454;SDS011;25155;41.890;23.446;2023-09-19T06:15:10;14.05;;;9.20;;
39454;SDS011;25155;41.890;23.446;2023-09-19T06:17:42;20.33;;;14.40;;
39454;SDS011;25155;41.890;23.446;2023-09-19T06:20:10;15.55;;;12.93;;
39454;SDS011;25155;41.890;23.446;2023-09-19T06:22:40;19.52;;;14.15;;
39454;SDS011;25155;41.890;23.446;2023-09-19T06:25:08;15.15;;;11.50;;
39454;SDS011;25155;41.890;23.446;2023-09-19T06:27:38;16.55;;;12.90;;
39454;SDS011;25155;41.890;23.446;2023-09-19T06:30:07;17.88;;;14.32;;
39454;SDS011;25155;41.890;23.446;2023-09-19T06:32:35;19.35;;;15.68;;
39454;SDS011;25155;41.890;23.446;2023-09-19T06:35:04;17.42;;;13.65;;
39454;SDS011;25155;41.890;23.446;2023-09-19T06:40:01;23.13;;;17.55;;
39454;SDS011;25155;41.890;23.446;2023-09-19T06:42:31;21.67;;;18.05;;
39454;SDS011;25155;41.890;23.446;2023-09-19T06:44:58;22.65;;;17.25;;
39454;SDS011;25155;41.890;23.446;2023-09-19T06:47:25;19.42;;;15.88;;
39454;SDS011;25155;41.890;23.446;2023-09-19T06:49:52;14.57;;;12.57;;
39454;SDS011;25155;41.890;23.446;2023-09-19T06:52:20;13.18;;;11.43;;
39454;SDS011;25155;41.890;23.446;2023-09-19T06:54:48;17.65;;;14.13;;
39454;SDS011;25155;41.890;23.446;2023-09-19T06:57:15;17.98;;;14.38;;
39454;SDS011;25155;41.890;23.446;2023-09-19T06:59:43;29.33;;;20.10;;
39454;SDS011;25155;41.890;23.446;2023-09-19T07:02:10;18.50;;;14.75;;
39454;SDS011;25155;41.890;23.446;2023-09-19T07:04:38;21.10;;;16.45;;
39454;SDS011;25155;41.890;23.446;2023-09-19T07:07:05;24.05;;;19.95;;
39454;SDS011;25155;41.890;23.446;2023-09-19T07:09:35;20.23;;;16.23;;
39454;SDS011;25155;41.890;23.446;2023-09-19T07:12:02;16.75;;;13.93;;
39454;SDS011;25155;41.890;23.446;2023-09-19T07:14:30;16.23;;;14.13;;
39454;SDS011;25155;41.890;23.446;2023-09-19T07:16:58;14.07;;;12.00;;
39454;SDS011;25155;41.890;23.446;2023-09-19T07:19:25;13.13;;;9.88;;
39454;SDS011;25155;41.890;23.446;2023-09-19T07:21:54;19.17;;;12.60;;
39454;SDS011;25155;41.890;23.446;2023-09-19T07:24:21;11.02;;;9.40;;
39454;SDS011;25155;41.890;23.446;2023-09-19T07:26:51;16.17;;;11.38;;
39454;SDS011;25155;41.890;23.446;2023-09-19T07:29:18;18.50;;;12.40;;
39454;SDS011;25155;41.890;23.446;2023-09-19T07:31:45;13.88;;;11.27;;
39454;SDS011;25155;41.890;23.446;2023-09-19T07:34:12;19.48;;;12.88;;
39454;SDS011;25155;41.890;23.446;2023-09-19T07:36:40;14.07;;;11.75;;
39454;SDS011;25155;41.890;23.446;2023-09-19T07:39:07;15.48;;;11.55;;
39454;SDS011;25155;41.890;23.446;2023-09-19T07:41:34;15.85;;;12.00;;
39454;SDS011;25155;41.890;23.446;2023-09-19T07:44:03;21.42;;;14.18;;
39454;SDS011;25155;41.890;23.446;2023-09-19T07:46:31;19.85;;;15.68;;
39454;SDS011;25155;41.890;23.446;2023-09-19T07:48:58;20.65;;;17.00;;
39454;SDS011;25155;41.890;23.446;2023-09-19T07:51:25;18.88;;;15.02;;
39454;SDS011;25155;41.890;23.446;2023-09-19T07:53:53;19.85;;;14.30;;
39454;SDS011;25155;41.890;23.446;2023-09-19T07:56:21;15.85;;;11.88;;
39454;SDS011;25155;41.890;23.446;2023-09-19T07:58:49;14.45;;;11.80;;
39454;SDS011;25155;41.890;23.446;2023-09-19T08:01:18;17.17;;;13.13;;
39454;SDS011;25155;41.890;23.446;2023-09-19T08:03:49;14.13;;;10.80;;
39454;SDS011;25155;41.890;23.446;2023-09-19T08:06:16;17.98;;;13.23;;
39454;SDS011;25155;41.890;23.446;2023-09-19T08:08:44;17.80;;;15.65;;
39454;SDS011;25155;41.890;23.446;2023-09-19T08:11:11;17.20;;;13.65;;
39454;SDS011;25155;41.890;23.446;2023-09-19T08:13:40;19.05;;;13.32;;
39454;SDS011;25155;41.890;23.446;2023-09-19T08:16:11;15.98;;;12.68;;
39454;SDS011;25155;41.890;23.446;2023-09-19T08:18:41;15.23;;;11.98;;
39454;SDS011;25155;41.890;23.446;2023-09-19T08:21:11;14.32;;;12.13;;
39454;SDS011;25155;41.890;23.446;2023-09-19T08:23:39;15.55;;;11.90;;
39454;SDS011;25155;41.890;23.446;2023-09-19T08:26:07;16.60;;;13.00;;
39454;SDS011;25155;41.890;23.446;2023-09-19T08:28:34;12.05;;;10.30;;
39454;SDS011;25155;41.890;23.446;2023-09-19T08:31:02;9.05;;;7.50;;
39454;SDS011;25155;41.890;23.446;2023-09-19T08:33:31;11.32;;;8.57;;
39454;SDS011;25155;41.890;23.446;2023-09-19T08:36:00;12.10;;;8.73;;
39454;SDS011;25155;41.890;23.446;2023-09-19T08:38:30;9.77;;;7.60;;
39454;SDS011;25155;41.890;23.446;2023-09-19T08:40:58;9.10;;;7.07;;
39454;SDS011;25155;41.890;23.446;2023-09-19T08:43:26;11.35;;;8.65;;
39454;SDS011;25155;41.890;23.446;2023-09-19T08:45:54;9.98;;;7.05;;
39454;SDS011;25155;41.890;23.446;2023-09-19T08:48:29;8.95;;;6.40;;
39454;SDS011;25155;41.890;23.446;2023-09-19T08:51:00;8.52;;;4.32;;
39454;SDS011;25155;41.890;23.446;2023-09-19T08:53:31;6.47;;;5.10;;
39454;SDS011;25155;41.890;23.446;2023-09-19T08:56:09;6.25;;;4.72;;
39454;SDS011;25155;41.890;23.446;2023-09-19T08:58:41;6.97;;;4.27;;
39454;SDS011;25155;41.890;23.446;2023-09-19T09:01:14;6.88;;;4.25;;
39454;SDS011;25155;41.890;23.446;2023-09-19T09:03:43;6.57;;;4.40;;
39454;SDS011;25155;41.890;23.446;2023-09-19T09:06:15;5.55;;;4.00;;
39454;SDS011;25155;41.890;23.446;2023-09-19T09:08:44;6.88;;;4.57;;
39454;SDS011;25155;41.890;23.446;2023-09-19T09:11:11;6.40;;;4.45;;
39454;SDS011;25155;41.890;23.446;2023-09-19T09:13:39;6.25;;;4.38;;
39454;SDS011;25155;41.890;23.446;2023-09-19T09:16:07;6.07;;;4.63;;
39454;SDS011;25155;41.890;23.446;2023-09-19T09:18:35;6.80;;;4.93;;
39454;SDS011;25155;41.890;23.446;2023-09-19T09:21:02;6.75;;;4.72;;
39454;SDS011;25155;41.890;23.446;2023-09-19T09:23:32;8.13;;;5.47;;
39454;SDS011;25155;41.890;23.446;2023-09-19T09:25:59;5.80;;;4.25;;
39454;SDS011;25155;41.890;23.446;2023-09-19T09:28:30;5.50;;;4.28;;
39454;SDS011;25155;41.890;23.446;2023-09-19T09:31:00;5.47;;;4.13;;
39454;SDS011;25155;41.890;23.446;2023-09-19T09:33:33;5.63;;;3.97;;
39454;SDS011;25155;41.890;23.446;2023-09-19T09:36:01;4.97;;;3.85;;
39454;SDS011;25155;41.890;23.446;2023-09-19T09:38:43;5.93;;;4.20;;
39454;SDS011;25155;41.890;23.446;2023-09-19T09:43:42;5.75;;;4.25;;
39454;SDS011;25155;41.890;23.446;2023-09-19T09:46:13;6.23;;;4.33;;
39454;SDS011;25155;41.890;23.446;2023-09-19T09:48:59;6.18;;;4.00;;
39454;SDS011;25155;41.890;23.446;2023-09-19T09:51:58;5.32;;;3.70;;
39454;SDS011;25155;41.890;23.446;2023-09-19T09:54:33;5.28;;;4.00;;
39454;SDS011;25155;41.890;23.446;2023-09-19T09:57:02;6.43;;;4.53;;
39454;SDS011;25155;41.890;23.446;2023-09-19T09:59:46;5.97;;;4.70;;
39454;SDS011;25155;41.890;23.446;2023-09-19T10:02:15;7.85;;;5.30;;
39454;SDS011;25155;41.890;23.446;2023-09-19T10:04:49;6.32;;;5.05;;
39454;SDS011;25155;41.890;23.446;2023-09-19T10:07:37;5.70;;;4.35;;
39454;SDS011;25155;41.890;23.446;2023-09-19T10:10:08;5.45;;;4.28;;
39454;SDS011;25155;41.890;23.446;2023-09-19T10:12:43;6.43;;;4.75;;
39454;SDS011;25155;41.890;23.446;2023-09-19T10:15:15;6.15;;;4.63;;
39454;SDS011;25155;41.890;23.446;2023-09-19T10:17:46;6.55;;;4.80;;
39454;SDS011;25155;41.890;23.446;2023-09-19T10:20:14;7.22;;;5.22;;
39454;SDS011;25155;41.890;23.446;2023-09-19T10:23:04;6.13;;;4.75;;
39454;SDS011;25155;41.890;23.446;2023-09-19T10:25:39;5.60;;;4.03;;
39454;SDS011;25155;41.890;23.446;2023-09-19T10:28:08;7.93;;;5.60;;
39454;SDS011;25155;41.890;23.446;2023-09-19T10:30:40;6.85;;;5.13;;
39454;SDS011;25155;41.890;23.446;2023-09-19T10:33:11;8.05;;;5.00;;
39454;SDS011;25155;41.890;23.446;2023-09-19T10:35:39;7.32;;;4.88;;
39454;SDS011;25155;41.890;23.446;2023-09-19T10:38:09;6.40;;;4.40;;
39454;SDS011;25155;41.890;23.446;2023-09-19T10:40:39;6.40;;;4.80;;
39454;SDS011;25155;41.890;23.446;2023-09-19T10:43:11;6.00;;;4.68;;
39454;SDS011;25155;41.890;23.446;2023-09-19T10:45:40;5.93;;;4.55;;
39454;SDS011;25155;41.890;23.446;2023-09-19T10:48:10;6.00;;;5.00;;
39454;SDS011;25155;41.890;23.446;2023-09-19T10:50:43;6.53;;;4.80;;
39454;SDS011;25155;41.890;23.446;2023-09-19T10:53:14;6.40;;;5.53;;
39454;SDS011;25155;41.890;23.446;2023-09-19T10:55:49;6.97;;;4.97;;
39454;SDS011;25155;41.890;23.446;2023-09-19T10:58:26;7.72;;;5.35;;
39454;SDS011;25155;41.890;23.446;2023-09-19T11:00:55;5.72;;;4.72;;
39454;SDS011;25155;41.890;23.446;2023-09-19T11:03:30;7.65;;;5.00;;
39454;SDS011;25155;41.890;23.446;2023-09-19T11:06:05;6.95;;;5.57;;
39454;SDS011;25155;41.890;23.446;2023-09-19T11:08:58;6.70;;;5.20;;
39454;SDS011;25155;41.890;23.446;2023-09-19T11:11:50;6.20;;;4.65;;
39454;SDS011;25155;41.890;23.446;2023-09-19T11:14:38;7.03;;;5.25;;
39454;SDS011;25155;41.890;23.446;2023-09-19T11:20:22;7.07;;;5.00;;
39454;SDS011;25155;41.890;23.446;2023-09-19T11:23:21;7.50;;;4.90;;
39454;SDS011;25155;41.890;23.446;2023-09-19T11:25:49;6.45;;;4.78;;
39454;SDS011;25155;41.890;23.446;2023-09-19T11:28:29;5.35;;;4.13;;
39454;SDS011;25155;41.890;23.446;2023-09-19T11:30:57;8.90;;;5.55;;
39454;SDS011;25155;41.890;23.446;2023-09-19T11:33:25;6.18;;;4.65;;
39454;SDS011;25155;41.890;23.446;2023-09-19T11:36:00;5.45;;;4.65;;
39454;SDS011;25155;41.890;23.446;2023-09-19T11:41:37;6.22;;;4.45;;
39454;SDS011;25155;41.890;23.446;2023-09-19T11:47:04;6.43;;;4.75;;
39454;SDS011;25155;41.890;23.446;2023-09-19T11:49:32;6.35;;;5.07;;
39454;SDS011;25155;41.890;23.446;2023-09-19T11:52:02;7.93;;;5.18;;
39454;SDS011;25155;41.890;23.446;2023-09-19T11:54:34;6.90;;;5.13;;
39454;SDS011;25155;41.890;23.446;2023-09-19T11:57:06;6.07;;;4.40;;
39454;SDS011;25155;41.890;23.446;2023-09-19T11:59:39;6.72;;;4.53;;
39454;SDS011;25155;41.890;23.446;2023-09-19T12:02:06;6.55;;;5.05;;
39454;SDS011;25155;41.890;23.446;2023-09-19T12:04:36;5.93;;;4.22;;
39454;SDS011;25155;41.890;23.446;2023-09-19T12:07:05;6.10;;;4.65;;
39454;SDS011;25155;41.890;23.446;2023-09-19T12:09:39;5.78;;;4.43;;
39454;SDS011;25155;41.890;23.446;2023-09-19T12:12:09;6.20;;;4.75;;
39454;SDS011;25155;41.890;23.446;2023-09-19T12:14:43;6.32;;;4.80;;
39454;SDS011;25155;41.890;23.446;2023-09-19T12:17:14;5.82;;;4.55;;
39454;SDS011;25155;41.890;23.446;2023-09-19T12:19:49;7.00;;;4.57;;
39454;SDS011;25155;41.890;23.446;2023-09-19T12:22:17;6.80;;;4.47;;
39454;SDS011;25155;41.890;23.446;2023-09-19T12:24:45;5.03;;;4.20;;
39454;SDS011;25155;41.890;23.446;2023-09-19T12:27:13;8.60;;;4.75;;
39454;SDS011;25155;41.890;23.446;2023-09-19T12:29:45;5.43;;;3.90;;
39454;SDS011;25155;41.890;23.446;2023-09-19T12:32:14;5.10;;;3.78;;
39454;SDS011;25155;41.890;23.446;2023-09-19T12:34:42;6.43;;;3.92;;
39454;SDS011;25155;41.890;23.446;2023-09-19T12:37:17;5.45;;;3.80;;
39454;SDS011;25155;41.890;23.446;2023-09-19T12:39:49;5.20;;;3.40;;
39454;SDS011;25155;41.890;23.446;2023-09-19T12:42:20;6.82;;;3.83;;
39454;SDS011;25155;41.890;23.446;2023-09-19T12:44:55;5.32;;;4.20;;
39454;SDS011;25155;41.890;23.446;2023-09-19T12:47:27;7.57;;;4.72;;
39454;SDS011;25155;41.890;23.446;2023-09-19T12:52:50;8.20;;;4.60;;
39454;SDS011;25155;41.890;23.446;2023-09-19T12:55:22;6.32;;;4.22;;
39454;SDS011;25155;41.890;23.446;2023-09-19T12:57:55;6.40;;;4.20;;
39454;SDS011;25155;41.890;23.446;2023-09-19T13:00:33;6.13;;;4.10;;
39454;SDS011;25155;41.890;23.446;2023-09-19T13:05:54;6.63;;;4.10;;
39454;SDS011;25155;41.890;23.446;2023-09-19T13:08:23;5.78;;;4.10;;
39454;SDS011;25155;41.890;23.446;2023-09-19T13:11:08;6.15;;;4.15;;
39454;SDS011;25155;41.890;23.446;2023-09-19T13:13:38;6.25;;;4.63;;
39454;SDS011;25155;41.890;23.446;2023-09-19T13:16:09;7.82;;;4.20;;
39454;SDS011;25155;41.890;23.446;2023-09-19T13:18:43;9.55;;;4.20;;
39454;SDS011;25155;41.890;23.446;2023-09-19T13:21:11;6.88;;;3.97;;
39454;SDS011;25155;41.890;23.446;2023-09-19T13:23:49;5.95;;;4.05;;
39454;SDS011;25155;41.890;23.446;2023-09-19T13:26:17;6.18;;;4.22;;
39454;SDS011;25155;41.890;23.446;2023-09-19T13:28:45;7.20;;;4.25;;
39454;SDS011;25155;41.890;23.446;2023-09-19T13:31:15;5.95;;;4.00;;
39454;SDS011;25155;41.890;23.446;2023-09-19T13:33:43;6.30;;;4.45;;
39454;SDS011;25155;41.890;23.446;2023-09-19T13:36:12;6.65;;;4.40;;
39454;SDS011;25155;41.890;23.446;2023-09-19T13:38:39;5.30;;;4.13;;
39454;SDS011;25155;41.890;23.446;2023-09-19T13:41:08;7.03;;;4.60;;
39454;SDS011;25155;41.890;23.446;2023-09-19T13:43:36;5.18;;;3.85;;
39454;SDS011;25155;41.890;23.446;2023-09-19T13:46:04;5.78;;;3.83;;
39454;SDS011;25155;41.890;23.446;2023-09-19T13:48:35;5.13;;;3.78;;
39454;SDS011;25155;41.890;23.446;2023-09-19T13:51:03;5.13;;;4.00;;
39454;SDS011;25155;41.890;23.446;2023-09-19T13:53:31;5.40;;;3.92;;
39454;SDS011;25155;41.890;23.446;2023-09-19T13:55:58;5.63;;;4.20;;
39454;SDS011;25155;41.890;23.446;2023-09-19T13:58:25;5.03;;;3.60;;
39454;SDS011;25155;41.890;23.446;2023-09-19T14:00:52;5.88;;;4.40;;
39454;SDS011;25155;41.890;23.446;2023-09-19T14:05:51;4.80;;;3.50;;
39454;SDS011;25155;41.890;23.446;2023-09-19T14:08:18;5.00;;;3.83;;
39454;SDS011;25155;41.890;23.446;2023-09-19T14:10:47;4.88;;;3.40;;
39454;SDS011;25155;41.890;23.446;2023-09-19T14:13:14;6.85;;;4.10;;
39454;SDS011;25155;41.890;23.446;2023-09-19T14:15:41;5.18;;;3.70;;
39454;SDS011;25155;41.890;23.446;2023-09-19T14:18:08;3.75;;;2.40;;
39454;SDS011;25155;41.890;23.446;2023-09-19T14:20:37;3.63;;;2.70;;
39454;SDS011;25155;41.890;23.446;2023-09-19T14:23:07;5.15;;;3.85;;
39454;SDS011;25155;41.890;23.446;2023-09-19T14:25:35;4.43;;;3.30;;
39454;SDS011;25155;41.890;23.446;2023-09-19T14:28:04;5.22;;;3.60;;
39454;SDS011;25155;41.890;23.446;2023-09-19T14:30:33;5.28;;;3.40;;
39454;SDS011;25155;41.890;23.446;2023-09-19T14:33:02;4.65;;;3.10;;
39454;SDS011;25155;41.890;23.446;2023-09-19T14:35:30;4.45;;;3.10;;
39454;SDS011;25155;41.890;23.446;2023-09-19T14:37:57;5.38;;;2.90;;
39454;SDS011;25155;41.890;23.446;2023-09-19T14:40:25;4.57;;;2.92;;
39454;SDS011;25155;41.890;23.446;2023-09-19T14:42:53;4.03;;;2.72;;
39454;SDS011;25155;41.890;23.446;2023-09-19T14:45:20;4.15;;;2.65;;
39454;SDS011;25155;41.890;23.446;2023-09-19T14:47:47;4.03;;;2.65;;
39454;SDS011;25155;41.890;23.446;2023-09-19T14:50:14;3.47;;;2.40;;
39454;SDS011;25155;41.890;23.446;2023-09-19T14:52:41;3.35;;;2.30;;
39454;SDS011;25155;41.890;23.446;2023-09-19T14:55:09;3.22;;;2.30;;
39454;SDS011;25155;41.890;23.446;2023-09-19T14:57:41;2.97;;;2.10;;
39454;SDS011;25155;41.890;23.446;2023-09-19T15:00:11;5.38;;;3.38;;
39454;SDS011;25155;41.890;23.446;2023-09-19T15:02:39;4.57;;;2.95;;
39454;SDS011;25155;41.890;23.446;2023-09-19T15:05:07;4.60;;;3.20;;
39454;SDS011;25155;41.890;23.446;2023-09-19T15:07:35;4.45;;;3.00;;
39454;SDS011;25155;41.890;23.446;2023-09-19T15:12:35;4.15;;;2.80;;
39454;SDS011;25155;41.890;23.446;2023-09-19T15:15:05;4.28;;;3.05;;